createdAt,value
2023-03-31T00:00:29.994Z,987.26
2023-03-31T00:01:29.983Z,987.24
2023-03-31T00:02:30.054Z,987.22
2023-03-31T00:03:30.415Z,987.17
2023-03-31T00:04:29.959Z,987.14
2023-03-31T00:05:29.957Z,987.10
2023-03-31T00:06:29.941Z,987.08
2023-03-31T00:07:29.925Z,987.05
2023-03-31T00:08:31.010Z,987.03
2023-03-31T00:09:29.931Z,987.00
2023-03-31T00:10:29.918Z,986.99
2023-03-31T00:11:29.888Z,986.99
2023-03-31T00:12:29.886Z,986.97
2023-03-31T00:13:30.094Z,986.97
2023-03-31T00:14:29.867Z,986.96
2023-03-31T00:15:29.854Z,986.92
2023-03-31T00:16:29.926Z,986.87
2023-03-31T00:17:29.841Z,986.86
2023-03-31T00:18:30.557Z,986.85
2023-03-31T00:19:29.812Z,986.84
2023-03-31T00:20:29.825Z,986.82
2023-03-31T00:21:29.993Z,986.78
2023-03-31T00:22:29.796Z,986.77
2023-03-31T00:23:30.319Z,986.75
2023-03-31T00:24:29.773Z,986.69
2023-03-31T00:25:29.759Z,986.70
2023-03-31T00:26:29.757Z,986.66
2023-03-31T00:27:29.735Z,986.65
2023-03-31T00:28:30.616Z,986.63
2023-03-31T00:29:29.724Z,986.59
2023-03-31T00:30:29.714Z,986.57
2023-03-31T00:31:29.746Z,986.54
2023-03-31T00:32:29.707Z,986.54
2023-03-31T00:33:30.051Z,986.52
2023-03-31T00:34:29.681Z,986.53
2023-03-31T00:35:29.664Z,986.49
2023-03-31T00:36:29.675Z,986.50
2023-03-31T00:37:29.643Z,986.47
2023-03-31T00:38:30.618Z,986.45
2023-03-31T00:39:29.623Z,986.45
2023-03-31T00:40:29.623Z,986.43
2023-03-31T00:41:29.633Z,986.40
2023-03-31T00:42:29.606Z,986.41
2023-03-31T00:43:29.931Z,986.38
2023-03-31T00:44:29.594Z,986.39
2023-03-31T00:45:29.586Z,986.42
2023-03-31T00:46:29.615Z,986.43
2023-03-31T00:47:29.609Z,986.42
2023-03-31T00:48:29.937Z,986.43
2023-03-31T00:49:29.540Z,986.39
2023-03-31T00:50:29.540Z,986.39
2023-03-31T00:51:29.544Z,986.37
2023-03-31T00:52:29.512Z,986.36
2023-03-31T00:53:29.930Z,986.35
2023-03-31T00:54:29.502Z,986.32
2023-03-31T00:55:29.479Z,986.30
2023-03-31T00:56:29.475Z,986.28
2023-03-31T00:57:29.495Z,986.28
2023-03-31T00:58:30.177Z,986.25
2023-03-31T00:59:29.449Z,986.25
2023-03-31T01:00:29.461Z,986.23
2023-03-31T01:01:29.476Z,986.23
2023-03-31T01:02:29.466Z,986.23
2023-03-31T01:03:30.210Z,986.22
2023-03-31T01:04:29.403Z,986.18
2023-03-31T01:05:29.400Z,986.18
2023-03-31T01:06:29.390Z,986.16
2023-03-31T01:07:29.384Z,986.11
2023-03-31T01:08:29.753Z,986.10
2023-03-31T01:09:29.358Z,986.07
2023-03-31T01:10:29.353Z,986.03
2023-03-31T01:11:29.337Z,985.97
2023-03-31T01:12:29.351Z,985.94
2023-03-31T01:13:29.332Z,985.88
2023-03-31T01:14:29.317Z,985.87
2023-03-31T01:15:29.298Z,985.90
2023-03-31T01:16:29.382Z,985.94
2023-03-31T01:17:29.498Z,985.94
2023-03-31T01:18:29.675Z,985.94
2023-03-31T01:19:29.261Z,985.93
2023-03-31T01:20:29.261Z,985.89
2023-03-31T01:21:29.239Z,985.87
2023-03-31T01:22:29.253Z,985.84
2023-03-31T01:23:29.955Z,985.86
2023-03-31T01:24:29.226Z,985.86
2023-03-31T01:25:29.199Z,985.86
2023-03-31T01:26:29.203Z,985.86
2023-03-31T01:27:29.194Z,985.84
2023-03-31T01:28:29.980Z,985.78
2023-03-31T01:29:29.212Z,985.76
2023-03-31T01:30:29.162Z,985.76
2023-03-31T01:31:29.219Z,985.76
2023-03-31T01:32:29.205Z,985.76
2023-03-31T01:33:29.976Z,985.77
2023-03-31T01:34:29.164Z,985.75
2023-03-31T01:35:29.117Z,985.74
2023-03-31T01:36:29.151Z,985.74
2023-03-31T01:37:29.092Z,985.70
2023-03-31T01:38:29.577Z,985.69
2023-03-31T01:39:29.082Z,985.68
2023-03-31T01:40:29.073Z,985.66
2023-03-31T01:41:29.066Z,985.63
2023-03-31T01:42:29.057Z,985.64
2023-03-31T01:43:29.397Z,985.64
2023-03-31T01:44:29.048Z,985.66
2023-03-31T01:45:29.022Z,985.64
2023-03-31T01:46:29.083Z,985.65
2023-03-31T01:47:29.045Z,985.63
2023-03-31T01:48:29.317Z,985.59
2023-03-31T01:49:28.983Z,985.59
2023-03-31T01:50:28.989Z,985.56
2023-03-31T01:51:28.968Z,985.54
2023-03-31T01:52:29.023Z,985.51
2023-03-31T01:53:29.326Z,985.50
2023-03-31T01:54:28.945Z,985.45
2023-03-31T01:55:28.932Z,985.43
2023-03-31T01:56:28.935Z,985.41
2023-03-31T01:57:29.013Z,985.38
2023-03-31T01:58:29.259Z,985.33
2023-03-31T01:59:28.895Z,985.30
2023-03-31T02:00:28.888Z,985.29
2023-03-31T02:01:28.908Z,985.25
2023-03-31T02:02:28.963Z,985.26
2023-03-31T02:03:29.755Z,985.25
2023-03-31T02:04:28.850Z,985.23
2023-03-31T02:05:28.856Z,985.22
2023-03-31T02:06:28.834Z,985.17
2023-03-31T02:07:28.818Z,985.16
2023-03-31T02:08:29.281Z,985.13
2023-03-31T02:09:28.801Z,985.11
2023-03-31T02:10:28.818Z,985.09
2023-03-31T02:11:28.788Z,985.06
2023-03-31T02:12:28.771Z,985.04
2023-03-31T02:13:29.656Z,985.04
2023-03-31T02:14:28.762Z,985.07
2023-03-31T02:15:28.757Z,985.04
2023-03-31T02:16:28.788Z,985.05
2023-03-31T02:17:28.738Z,985.02
2023-03-31T02:18:29.015Z,985.01
2023-03-31T02:19:28.701Z,984.98
2023-03-31T02:20:28.698Z,985.00
2023-03-31T02:21:28.685Z,984.94
2023-03-31T02:22:28.681Z,984.91
2023-03-31T02:23:29.347Z,984.86
2023-03-31T02:24:28.662Z,984.90
2023-03-31T02:25:28.644Z,984.88
2023-03-31T02:26:28.639Z,984.88
2023-03-31T02:27:28.621Z,984.86
2023-03-31T02:28:29.460Z,984.88
2023-03-31T02:29:28.617Z,984.88
2023-03-31T02:30:28.605Z,984.86
2023-03-31T02:31:28.600Z,984.85
2023-03-31T02:32:28.625Z,984.84
2023-03-31T02:33:29.291Z,984.85
2023-03-31T02:34:28.566Z,984.84
2023-03-31T02:35:28.590Z,984.83
2023-03-31T02:36:28.548Z,984.83
2023-03-31T02:37:28.531Z,984.82
2023-03-31T02:38:28.912Z,984.81
2023-03-31T02:39:28.520Z,984.78
2023-03-31T02:40:28.511Z,984.74
2023-03-31T02:41:28.504Z,984.77
2023-03-31T02:42:28.489Z,984.76
2023-03-31T02:43:29.374Z,984.71
2023-03-31T02:44:28.472Z,984.71
2023-03-31T02:45:28.493Z,984.70
2023-03-31T02:46:28.510Z,984.69
2023-03-31T02:47:28.471Z,984.66
2023-03-31T02:48:28.793Z,984.63
2023-03-31T02:49:28.427Z,984.60
2023-03-31T02:50:28.421Z,984.61
2023-03-31T02:51:28.446Z,984.60
2023-03-31T02:52:28.405Z,984.54
2023-03-31T02:53:29.160Z,984.54
2023-03-31T02:54:28.376Z,984.52
2023-03-31T02:55:28.366Z,984.50
2023-03-31T02:56:28.355Z,984.47
2023-03-31T02:57:28.459Z,984.47
2023-03-31T02:58:28.336Z,984.45
2023-03-31T02:59:28.680Z,984.43
2023-03-31T03:00:28.322Z,984.41
2023-03-31T03:01:28.388Z,984.42
2023-03-31T03:02:28.393Z,984.40
2023-03-31T03:03:28.342Z,984.41
2023-03-31T03:04:28.567Z,984.42
2023-03-31T03:05:28.274Z,984.38
2023-03-31T03:06:28.262Z,984.36
2023-03-31T03:07:28.256Z,984.34
2023-03-31T03:08:28.241Z,984.33
2023-03-31T03:09:28.569Z,984.33
2023-03-31T03:10:28.223Z,984.29
2023-03-31T03:11:28.236Z,984.27
2023-03-31T03:12:28.205Z,984.25
2023-03-31T03:13:28.208Z,984.21
2023-03-31T03:14:28.504Z,984.22
2023-03-31T03:15:28.180Z,984.21
2023-03-31T03:16:28.196Z,984.23
2023-03-31T03:17:28.229Z,984.22
2023-03-31T03:18:28.152Z,984.18
2023-03-31T03:19:28.492Z,984.14
2023-03-31T03:20:28.138Z,984.13
2023-03-31T03:21:28.139Z,984.14
2023-03-31T03:22:28.119Z,984.13
2023-03-31T03:23:28.106Z,984.15
2023-03-31T03:24:28.289Z,984.16
2023-03-31T03:25:28.091Z,984.17
2023-03-31T03:26:28.094Z,984.12
2023-03-31T03:27:28.075Z,984.02
2023-03-31T03:28:28.057Z,983.94
2023-03-31T03:29:28.083Z,983.92
2023-03-31T03:30:28.034Z,983.90
2023-03-31T03:31:28.160Z,983.96
2023-03-31T03:32:28.091Z,983.98
2023-03-31T03:33:28.015Z,983.96
2023-03-31T03:34:28.310Z,983.93
2023-03-31T03:35:27.999Z,983.93
2023-03-31T03:36:28.037Z,983.88
2023-03-31T03:37:27.981Z,983.87
2023-03-31T03:38:27.969Z,983.87
2023-03-31T03:39:28.345Z,983.86
2023-03-31T03:40:27.944Z,983.86
2023-03-31T03:41:27.946Z,983.85
2023-03-31T03:42:27.931Z,983.81
2023-03-31T03:43:27.929Z,983.81
2023-03-31T03:44:28.673Z,983.76
2023-03-31T03:45:27.916Z,983.68
2023-03-31T03:46:27.912Z,983.68
2023-03-31T03:47:27.917Z,983.65
2023-03-31T03:48:27.882Z,983.62
2023-03-31T03:49:28.200Z,983.57
2023-03-31T03:50:27.851Z,983.55
2023-03-31T03:51:27.844Z,983.53
2023-03-31T03:52:27.833Z,983.54
2023-03-31T03:53:27.829Z,983.51
2023-03-31T03:54:28.084Z,983.49
2023-03-31T03:55:27.803Z,983.49
2023-03-31T03:56:27.789Z,983.44
2023-03-31T03:57:27.816Z,983.39
2023-03-31T03:58:27.786Z,983.34
2023-03-31T03:59:28.128Z,983.30
2023-03-31T04:00:27.749Z,983.27
2023-03-31T04:01:27.746Z,983.23
2023-03-31T04:02:28.155Z,983.19
2023-03-31T04:03:27.772Z,983.15
2023-03-31T04:04:28.050Z,983.13
2023-03-31T04:05:27.774Z,983.10
2023-03-31T04:06:27.703Z,983.08
2023-03-31T04:07:27.689Z,983.06
2023-03-31T04:08:27.674Z,983.04
2023-03-31T04:09:28.076Z,983.02
2023-03-31T04:10:27.653Z,983.00
2023-03-31T04:11:27.649Z,982.93
2023-03-31T04:12:27.640Z,982.93
2023-03-31T04:13:27.625Z,982.94
2023-03-31T04:14:28.421Z,982.96
2023-03-31T04:15:27.611Z,982.91
2023-03-31T04:16:27.631Z,982.88
2023-03-31T04:17:27.648Z,982.84
2023-03-31T04:18:27.582Z,982.81
2023-03-31T04:19:27.673Z,982.74
2023-03-31T04:20:27.558Z,982.68
2023-03-31T04:21:27.553Z,982.66
2023-03-31T04:22:27.537Z,982.63
2023-03-31T04:23:27.573Z,982.58
2023-03-31T04:24:27.535Z,982.56
2023-03-31T04:25:27.526Z,982.56
2023-03-31T04:26:27.498Z,982.57
2023-03-31T04:27:27.513Z,982.58
2023-03-31T04:28:27.481Z,982.57
2023-03-31T04:29:27.818Z,982.54
2023-03-31T04:30:27.413Z,982.53
2023-03-31T04:31:27.499Z,982.50
2023-03-31T04:32:27.459Z,982.51
2023-03-31T04:33:27.397Z,982.52
2023-03-31T04:34:27.395Z,982.51
2023-03-31T04:35:27.438Z,982.51
2023-03-31T04:36:27.403Z,982.52
2023-03-31T04:37:27.358Z,982.50
2023-03-31T04:38:27.524Z,982.46
2023-03-31T04:39:27.376Z,982.45
2023-03-31T04:40:27.319Z,982.44
2023-03-31T04:41:27.305Z,982.45
2023-03-31T04:42:27.292Z,982.44
2023-03-31T04:43:27.289Z,982.41
2023-03-31T04:44:27.391Z,982.39
2023-03-31T04:45:27.346Z,982.37
2023-03-31T04:46:27.299Z,982.39
2023-03-31T04:47:27.313Z,982.39
2023-03-31T04:48:27.238Z,982.37
2023-03-31T04:49:27.252Z,982.35
2023-03-31T04:50:27.222Z,982.37
2023-03-31T04:51:27.209Z,982.40
2023-03-31T04:52:27.194Z,982.44
2023-03-31T04:53:27.202Z,982.46
2023-03-31T04:54:27.201Z,982.50
2023-03-31T04:55:27.184Z,982.51
2023-03-31T04:56:27.170Z,982.54
2023-03-31T04:57:27.183Z,982.55
2023-03-31T04:58:27.142Z,982.50
2023-03-31T04:59:27.311Z,982.47
2023-03-31T05:00:27.129Z,982.42
2023-03-31T05:01:27.232Z,982.39
2023-03-31T05:02:27.168Z,982.32
2023-03-31T05:03:27.330Z,982.26
2023-03-31T05:04:27.108Z,982.24
2023-03-31T05:05:27.084Z,982.19
2023-03-31T05:06:27.067Z,982.15
2023-03-31T05:07:27.061Z,982.10
2023-03-31T05:08:27.067Z,982.07
2023-03-31T05:09:27.376Z,982.03
2023-03-31T05:10:27.036Z,982.00
2023-03-31T05:11:27.032Z,982.00
2023-03-31T05:12:27.014Z,981.95
2023-03-31T05:13:27.008Z,981.96
2023-03-31T05:14:27.319Z,981.96
2023-03-31T05:15:26.987Z,981.94
2023-03-31T05:16:26.990Z,981.95
2023-03-31T05:17:26.996Z,981.93
2023-03-31T05:18:26.969Z,981.89
2023-03-31T05:19:26.975Z,981.84
2023-03-31T05:20:26.936Z,981.78
2023-03-31T05:21:26.932Z,981.73
2023-03-31T05:22:26.919Z,981.70
2023-03-31T05:23:26.915Z,981.67
2023-03-31T05:24:27.577Z,981.67
2023-03-31T05:25:26.892Z,981.62
2023-03-31T05:26:26.880Z,981.65
2023-03-31T05:27:26.889Z,981.61
2023-03-31T05:28:26.864Z,981.65
2023-03-31T05:29:27.317Z,981.69
2023-03-31T05:30:26.850Z,981.73
2023-03-31T05:31:26.860Z,981.78
2023-03-31T05:32:26.844Z,981.85
2023-03-31T05:33:26.821Z,981.84
2023-03-31T05:34:26.821Z,981.84
2023-03-31T05:35:26.813Z,981.81
2023-03-31T05:36:26.815Z,981.74
2023-03-31T05:37:26.782Z,981.77
2023-03-31T05:38:26.771Z,981.74
2023-03-31T05:39:27.074Z,981.72
2023-03-31T05:40:26.760Z,981.72
2023-03-31T05:41:26.757Z,981.67
2023-03-31T05:42:26.746Z,981.66
2023-03-31T05:43:26.730Z,981.64
2023-03-31T05:44:27.029Z,981.67
2023-03-31T05:45:26.714Z,981.69
2023-03-31T05:46:26.746Z,981.70
2023-03-31T05:47:26.747Z,981.69
2023-03-31T05:48:26.672Z,981.66
2023-03-31T05:49:27.005Z,981.65
2023-03-31T05:50:26.659Z,981.60
2023-03-31T05:51:26.666Z,981.59
2023-03-31T05:52:26.643Z,981.55
2023-03-31T05:53:26.647Z,981.49
2023-03-31T05:54:26.960Z,981.45
2023-03-31T05:55:26.616Z,981.39
2023-03-31T05:56:26.600Z,981.42
2023-03-31T05:57:26.688Z,981.41
2023-03-31T05:58:26.613Z,981.46
2023-03-31T05:59:26.582Z,981.47
2023-03-31T06:00:26.592Z,981.45
2023-03-31T06:01:26.636Z,981.41
2023-03-31T06:02:26.744Z,981.37
2023-03-31T06:03:26.608Z,981.35
2023-03-31T06:04:26.580Z,981.32
2023-03-31T06:05:26.957Z,981.30
2023-03-31T06:06:26.516Z,981.27
2023-03-31T06:07:26.514Z,981.26
2023-03-31T06:08:26.492Z,981.24
2023-03-31T06:09:26.508Z,981.20
2023-03-31T06:10:26.490Z,981.17
2023-03-31T06:11:26.470Z,981.14
2023-03-31T06:12:26.456Z,981.11
2023-03-31T06:13:26.457Z,981.11
2023-03-31T06:14:26.452Z,981.09
2023-03-31T06:15:26.449Z,981.08
2023-03-31T06:16:26.556Z,981.08
2023-03-31T06:17:26.425Z,981.09
2023-03-31T06:18:26.409Z,981.08
2023-03-31T06:19:26.400Z,981.09
2023-03-31T06:20:28.286Z,981.03
2023-03-31T06:21:26.384Z,981.02
2023-03-31T06:22:26.370Z,980.97
2023-03-31T06:23:26.365Z,980.98
2023-03-31T06:24:26.355Z,980.95
2023-03-31T06:25:27.366Z,980.96
2023-03-31T06:26:26.354Z,980.94
2023-03-31T06:27:26.337Z,980.92
2023-03-31T06:28:26.318Z,980.92
2023-03-31T06:29:26.313Z,980.85
2023-03-31T06:30:26.323Z,980.83
2023-03-31T06:31:26.313Z,980.85
2023-03-31T06:32:26.311Z,980.81
2023-03-31T06:33:26.272Z,980.83
2023-03-31T06:34:26.267Z,980.85
2023-03-31T06:35:26.554Z,980.84
2023-03-31T06:36:26.256Z,980.86
2023-03-31T06:37:26.248Z,980.86
2023-03-31T06:38:26.226Z,980.88
2023-03-31T06:39:28.192Z,980.86
2023-03-31T06:40:26.660Z,980.86
2023-03-31T06:41:26.208Z,980.81
2023-03-31T06:42:26.235Z,980.81
2023-03-31T06:43:26.212Z,980.75
2023-03-31T06:44:26.178Z,980.78
2023-03-31T06:45:26.507Z,980.78
2023-03-31T06:46:26.202Z,980.74
2023-03-31T06:47:26.210Z,980.73
2023-03-31T06:48:26.143Z,980.75
2023-03-31T06:49:26.134Z,980.73
2023-03-31T06:50:26.480Z,980.75
2023-03-31T06:51:26.142Z,980.74
2023-03-31T06:52:26.110Z,980.71
2023-03-31T06:53:26.105Z,980.74
2023-03-31T06:54:26.095Z,980.72
2023-03-31T06:55:26.369Z,980.70
2023-03-31T06:56:26.068Z,980.66
2023-03-31T06:57:26.087Z,980.61
2023-03-31T06:58:27.725Z,980.65
2023-03-31T06:59:26.368Z,980.63
2023-03-31T07:00:26.429Z,980.61
2023-03-31T07:01:26.107Z,980.63
2023-03-31T07:02:26.051Z,980.63
2023-03-31T07:03:26.115Z,980.55
2023-03-31T07:04:26.002Z,980.64
2023-03-31T07:05:26.510Z,980.64
2023-03-31T07:06:26.000Z,980.69
2023-03-31T07:07:25.988Z,980.59
2023-03-31T07:08:25.964Z,980.58
2023-03-31T07:09:25.978Z,980.56
2023-03-31T07:10:26.385Z,980.60
2023-03-31T07:11:25.973Z,980.56
2023-03-31T07:12:25.942Z,980.58
2023-03-31T07:13:26.168Z,980.55
2023-03-31T07:14:25.918Z,980.56
2023-03-31T07:15:25.934Z,980.55
2023-03-31T07:16:25.962Z,980.58
2023-03-31T07:17:25.936Z,980.53
2023-03-31T07:18:25.951Z,980.51
2023-03-31T07:19:25.868Z,980.49
2023-03-31T07:20:26.380Z,980.55
2023-03-31T07:21:25.853Z,980.51
2023-03-31T07:22:25.874Z,980.46
2023-03-31T07:23:25.856Z,980.47
2023-03-31T07:24:25.830Z,980.45
2023-03-31T07:25:26.329Z,980.42
2023-03-31T07:26:25.822Z,980.39
2023-03-31T07:27:26.450Z,980.40
2023-03-31T07:28:25.789Z,980.41
2023-03-31T07:29:25.774Z,980.42
2023-03-31T07:30:26.082Z,980.43
2023-03-31T07:31:25.775Z,980.40
2023-03-31T07:32:27.707Z,980.39
2023-03-31T07:33:25.743Z,980.36
2023-03-31T07:34:25.743Z,980.33
2023-03-31T07:35:26.219Z,980.25
2023-03-31T07:36:25.769Z,980.33
2023-03-31T07:37:25.708Z,980.31
2023-03-31T07:38:25.780Z,980.31
2023-03-31T07:39:25.704Z,980.28
2023-03-31T07:40:26.135Z,980.27
2023-03-31T07:41:25.682Z,980.25
2023-03-31T07:42:25.681Z,980.22
2023-03-31T07:43:25.664Z,980.18
2023-03-31T07:44:25.656Z,980.17
2023-03-31T07:45:26.012Z,980.09
2023-03-31T07:46:25.660Z,980.10
2023-03-31T07:47:25.653Z,980.08
2023-03-31T07:48:25.647Z,980.06
2023-03-31T07:49:25.611Z,980.07
2023-03-31T07:50:25.940Z,980.09
2023-03-31T07:51:25.579Z,980.12
2023-03-31T07:52:25.578Z,980.01
2023-03-31T07:53:25.562Z,980.05
2023-03-31T07:54:25.561Z,980.06
2023-03-31T07:55:25.886Z,980.06
2023-03-31T07:56:25.539Z,980.05
2023-03-31T07:57:25.547Z,980.03
2023-03-31T07:58:25.548Z,980.03
2023-03-31T07:59:25.522Z,980.04
2023-03-31T08:00:25.642Z,979.98
2023-03-31T08:01:25.536Z,979.98
2023-03-31T08:02:25.650Z,979.98
2023-03-31T08:03:25.477Z,979.98
2023-03-31T08:04:25.480Z,979.95
2023-03-31T08:05:25.722Z,979.88
2023-03-31T08:06:25.484Z,979.91
2023-03-31T08:07:25.475Z,979.88
2023-03-31T08:08:25.498Z,979.88
2023-03-31T08:09:25.439Z,979.89
2023-03-31T08:10:25.445Z,979.87
2023-03-31T08:11:25.406Z,979.84
2023-03-31T08:12:25.420Z,979.90
2023-03-31T08:13:25.419Z,979.85
2023-03-31T08:14:40.022Z,979.84
2023-03-31T08:15:25.408Z,979.78
2023-03-31T08:16:25.428Z,979.81
2023-03-31T08:17:25.469Z,979.77
2023-03-31T08:18:25.346Z,979.73
2023-03-31T08:19:25.330Z,979.81
2023-03-31T08:20:25.648Z,979.73
2023-03-31T08:21:25.317Z,979.75
2023-03-31T08:22:25.322Z,979.71
2023-03-31T08:23:25.307Z,979.70
2023-03-31T08:24:25.302Z,979.66
2023-03-31T08:25:25.286Z,979.66
2023-03-31T08:26:26.055Z,979.61
2023-03-31T08:27:25.265Z,979.65
2023-03-31T08:28:25.257Z,979.65
2023-03-31T08:29:25.251Z,979.61
2023-03-31T08:30:25.253Z,979.58
2023-03-31T08:31:27.185Z,979.59
2023-03-31T08:32:25.265Z,979.53
2023-03-31T08:33:25.217Z,979.48
2023-03-31T08:34:25.228Z,979.46
2023-03-31T08:35:25.213Z,979.47
2023-03-31T08:36:25.254Z,979.39
2023-03-31T08:37:25.188Z,979.39
2023-03-31T08:38:25.176Z,979.36
2023-03-31T08:39:25.160Z,979.36
2023-03-31T08:40:25.175Z,979.36
2023-03-31T08:41:26.108Z,979.31
2023-03-31T08:42:25.133Z,979.24
2023-03-31T08:43:25.894Z,979.25
2023-03-31T08:44:25.116Z,979.23
2023-03-31T08:45:25.117Z,979.22
2023-03-31T08:46:25.481Z,979.24
2023-03-31T08:47:25.139Z,979.24
2023-03-31T08:48:25.077Z,979.28
2023-03-31T08:49:25.063Z,979.29
2023-03-31T08:50:25.057Z,979.25
2023-03-31T08:51:25.372Z,979.30
2023-03-31T08:52:25.051Z,979.27
2023-03-31T08:53:25.046Z,979.31
2023-03-31T08:54:25.017Z,979.30
2023-03-31T08:55:25.007Z,979.27
2023-03-31T08:56:25.611Z,979.27
2023-03-31T08:57:25.066Z,979.24
2023-03-31T08:58:25.005Z,979.26
2023-03-31T08:59:24.985Z,979.25
2023-03-31T09:00:24.975Z,979.26
2023-03-31T09:01:25.391Z,979.24
2023-03-31T09:02:25.211Z,979.26
2023-03-31T09:03:24.994Z,979.23
2023-03-31T09:04:25.006Z,979.21
2023-03-31T09:05:24.924Z,979.19
2023-03-31T09:06:24.934Z,979.21
2023-03-31T09:07:24.898Z,979.23
2023-03-31T09:08:24.897Z,979.22
2023-03-31T09:09:26.704Z,979.21
2023-03-31T09:10:24.876Z,979.21
2023-03-31T09:11:25.778Z,979.18
2023-03-31T09:12:24.866Z,979.19
2023-03-31T09:13:24.842Z,979.16
2023-03-31T09:14:24.853Z,979.14
2023-03-31T09:15:24.831Z,979.09
2023-03-31T09:16:25.094Z,979.04
2023-03-31T09:17:24.849Z,978.99
2023-03-31T09:18:25.448Z,978.98
2023-03-31T09:19:24.802Z,978.94
2023-03-31T09:20:24.828Z,978.92
2023-03-31T09:21:24.962Z,978.90
2023-03-31T09:22:24.767Z,978.90
2023-03-31T09:23:24.750Z,978.91
2023-03-31T09:24:24.779Z,978.89
2023-03-31T09:25:24.749Z,978.89
2023-03-31T09:26:25.635Z,978.86
2023-03-31T09:27:24.712Z,978.85
2023-03-31T09:28:24.707Z,978.84
2023-03-31T09:29:24.696Z,978.81
2023-03-31T09:30:24.694Z,978.80
2023-03-31T09:31:25.053Z,978.76
2023-03-31T09:32:24.762Z,978.76
2023-03-31T09:33:24.724Z,978.75
2023-03-31T09:34:24.656Z,978.75
2023-03-31T09:35:24.682Z,978.71
2023-03-31T09:36:25.047Z,978.69
2023-03-31T09:37:24.636Z,978.71
2023-03-31T09:38:24.618Z,978.72
2023-03-31T09:39:24.631Z,978.74
2023-03-31T09:40:24.612Z,978.73
2023-03-31T09:41:25.397Z,978.74
2023-03-31T09:42:24.576Z,978.71
2023-03-31T09:43:24.599Z,978.71
2023-03-31T09:44:24.589Z,978.70
2023-03-31T09:45:24.554Z,978.72
2023-03-31T09:46:24.635Z,978.71
2023-03-31T09:47:24.569Z,978.72
2023-03-31T09:48:24.531Z,978.70
2023-03-31T09:49:24.531Z,978.70
2023-03-31T09:50:25.139Z,978.69
2023-03-31T09:51:24.993Z,978.68
2023-03-31T09:52:24.547Z,978.66
2023-03-31T09:53:24.512Z,978.66
2023-03-31T09:54:24.477Z,978.66
2023-03-31T09:55:38.268Z,978.65
2023-03-31T09:56:25.282Z,978.65
2023-03-31T09:57:24.611Z,978.63
2023-03-31T09:58:24.446Z,978.60
2023-03-31T09:59:24.439Z,978.59
2023-03-31T10:00:24.421Z,978.57
2023-03-31T10:01:24.701Z,978.54
2023-03-31T10:02:24.446Z,978.52
2023-03-31T10:03:24.390Z,978.48
2023-03-31T10:04:24.408Z,978.46
2023-03-31T10:05:24.388Z,978.42
2023-03-31T10:06:24.699Z,978.40
2023-03-31T10:07:24.365Z,978.38
2023-03-31T10:08:24.368Z,978.37
2023-03-31T10:09:24.338Z,978.38
2023-03-31T10:10:24.340Z,978.35
2023-03-31T10:11:24.375Z,978.34
2023-03-31T10:12:24.388Z,978.33
2023-03-31T10:13:24.311Z,978.31
2023-03-31T10:14:24.306Z,978.30
2023-03-31T10:15:24.298Z,978.27
2023-03-31T10:16:24.738Z,978.29
2023-03-31T10:17:24.326Z,978.28
2023-03-31T10:18:24.333Z,978.26
2023-03-31T10:19:24.256Z,978.24
2023-03-31T10:20:24.268Z,978.22
2023-03-31T10:21:24.364Z,978.21
2023-03-31T10:22:24.240Z,978.21
2023-03-31T10:23:24.232Z,978.22
2023-03-31T10:24:24.260Z,978.21
2023-03-31T10:25:24.187Z,978.21
2023-03-31T10:26:24.901Z,978.19
2023-03-31T10:27:24.172Z,978.13
2023-03-31T10:28:24.159Z,978.10
2023-03-31T10:29:24.156Z,978.10
2023-03-31T10:30:24.158Z,978.08
2023-03-31T10:31:24.157Z,978.06
2023-03-31T10:32:24.592Z,978.05
2023-03-31T10:33:24.139Z,978.02
2023-03-31T10:34:24.085Z,978.01
2023-03-31T10:35:24.085Z,978.00
2023-03-31T10:36:24.090Z,978.00
2023-03-31T10:37:24.411Z,978.00
2023-03-31T10:38:24.058Z,977.98
2023-03-31T10:39:24.045Z,977.97
2023-03-31T10:40:24.035Z,977.95
2023-03-31T10:41:24.059Z,977.92
2023-03-31T10:42:24.371Z,977.92
2023-03-31T10:43:23.992Z,977.93
2023-03-31T10:44:23.993Z,977.92
2023-03-31T10:45:36.548Z,977.90
2023-03-31T10:46:24.005Z,977.88
2023-03-31T10:47:24.371Z,977.85
2023-03-31T10:48:23.959Z,977.83
2023-03-31T10:49:23.954Z,977.84
2023-03-31T10:50:23.951Z,977.84
2023-03-31T10:51:23.908Z,977.84
2023-03-31T10:52:24.273Z,977.82
2023-03-31T10:53:23.875Z,977.82
2023-03-31T10:54:23.882Z,977.77
2023-03-31T10:55:23.859Z,977.74
2023-03-31T10:56:23.850Z,977.73
2023-03-31T10:57:23.889Z,977.74
2023-03-31T10:58:23.834Z,977.69
2023-03-31T10:59:23.823Z,977.68
2023-03-31T11:00:23.836Z,977.68
2023-03-31T11:01:23.810Z,977.67
2023-03-31T11:02:23.868Z,977.63
2023-03-31T11:03:23.863Z,977.61
2023-03-31T11:04:23.770Z,977.59
2023-03-31T11:05:23.812Z,977.56
2023-03-31T11:06:23.804Z,977.56
2023-03-31T11:07:24.063Z,977.56
2023-03-31T11:08:23.739Z,977.55
2023-03-31T11:09:23.718Z,977.55
2023-03-31T11:10:23.740Z,977.49
2023-03-31T11:11:23.712Z,977.50
2023-03-31T11:12:23.702Z,977.48
2023-03-31T11:13:23.670Z,977.52
2023-03-31T11:14:23.663Z,977.44
2023-03-31T11:15:23.656Z,977.38
2023-03-31T11:16:23.696Z,977.41
2023-03-31T11:17:23.822Z,977.36
2023-03-31T11:18:23.631Z,977.42
2023-03-31T11:19:23.617Z,977.37
2023-03-31T11:20:23.599Z,977.39
2023-03-31T11:21:23.582Z,977.30
2023-03-31T11:22:25.551Z,977.27
2023-03-31T11:23:23.567Z,977.28
2023-03-31T11:24:23.558Z,977.24
2023-03-31T11:25:23.574Z,977.19
2023-03-31T11:26:23.536Z,977.22
2023-03-31T11:27:23.839Z,977.20
2023-03-31T11:28:23.498Z,977.18
2023-03-31T11:29:23.589Z,977.17
2023-03-31T11:30:23.478Z,977.20
2023-03-31T11:31:23.481Z,977.17
2023-03-31T11:32:23.476Z,977.17
2023-03-31T11:33:23.478Z,977.15
2023-03-31T11:34:23.796Z,977.15
2023-03-31T11:35:23.442Z,977.11
2023-03-31T11:36:23.437Z,977.10
2023-03-31T11:37:23.399Z,977.06
2023-03-31T11:38:24.001Z,977.08
2023-03-31T11:39:23.404Z,977.07
2023-03-31T11:40:23.379Z,977.09
2023-03-31T11:41:23.349Z,977.09
2023-03-31T11:42:23.345Z,977.06
2023-03-31T11:43:23.344Z,977.07
2023-03-31T11:44:23.327Z,977.08
2023-03-31T11:45:23.306Z,977.04
2023-03-31T11:46:23.330Z,977.01
2023-03-31T11:47:23.654Z,977.04
2023-03-31T11:48:23.257Z,977.03
2023-03-31T11:49:23.257Z,977.02
2023-03-31T11:50:23.237Z,977.03
2023-03-31T11:51:23.230Z,977.03
2023-03-31T11:52:23.222Z,977.00
2023-03-31T11:53:23.211Z,977.00
2023-03-31T11:54:23.241Z,977.00
2023-03-31T11:55:23.191Z,977.00
2023-03-31T11:56:23.162Z,977.03
2023-03-31T11:57:23.365Z,977.01
2023-03-31T11:58:23.141Z,977.02
2023-03-31T11:59:23.155Z,977.03
2023-03-31T12:00:23.116Z,977.01
2023-03-31T12:01:23.102Z,976.99
2023-03-31T12:02:23.446Z,976.98
2023-03-31T12:03:23.187Z,976.99
2023-03-31T12:04:23.066Z,976.96
2023-03-31T12:05:23.081Z,977.00
2023-03-31T12:06:23.114Z,977.01
2023-03-31T12:07:23.358Z,977.03
2023-03-31T12:08:23.044Z,977.00
2023-03-31T12:09:23.019Z,976.96
2023-03-31T12:10:22.987Z,976.96
2023-03-31T12:11:22.977Z,976.96
2023-03-31T12:12:23.146Z,976.96
2023-03-31T12:13:22.969Z,976.96
2023-03-31T12:14:22.934Z,976.91
2023-03-31T12:15:22.940Z,976.87
2023-03-31T12:16:22.955Z,976.86
2023-03-31T12:17:23.176Z,976.87
2023-03-31T12:18:22.918Z,976.82
2023-03-31T12:19:22.875Z,976.81
2023-03-31T12:20:22.867Z,976.77
2023-03-31T12:21:22.858Z,976.75
2023-03-31T12:22:23.006Z,976.74
2023-03-31T12:23:22.833Z,976.72
2023-03-31T12:24:22.813Z,976.72
2023-03-31T12:25:22.830Z,976.73
2023-03-31T12:26:22.825Z,976.72
2023-03-31T12:27:23.144Z,976.69
2023-03-31T12:28:22.801Z,976.65